createdAt,value
2022-11-24T00:02:13.124Z,93828.19
2022-11-24T00:04:42.458Z,93826.66
2022-11-24T00:07:14.079Z,93826.25
2022-11-24T00:09:43.374Z,93828.00
2022-11-24T00:12:12.687Z,93824.94
2022-11-24T00:14:41.826Z,93829.16
2022-11-24T00:17:10.953Z,93830.44
2022-11-24T00:19:40.182Z,93831.25
2022-11-24T00:22:09.426Z,93822.78
2022-11-24T00:24:40.004Z,93832.38
2022-11-24T00:27:09.447Z,93828.72
2022-11-24T00:29:38.616Z,93827.56
2022-11-24T00:32:07.833Z,93830.19
2022-11-24T00:34:36.921Z,93832.16
2022-11-24T00:37:06.144Z,93838.44
2022-11-24T00:39:35.386Z,93838.00
2022-11-24T00:42:06.183Z,93839.81
2022-11-24T00:44:35.505Z,93838.00
2022-11-24T00:47:05.144Z,93842.66
2022-11-24T00:49:34.476Z,93846.44
2022-11-24T00:52:03.680Z,93850.78
2022-11-24T00:54:33.008Z,93848.94
2022-11-24T00:57:03.136Z,93840.69
2022-11-24T00:59:34.123Z,93850.88
2022-11-24T01:02:03.469Z,93860.84
2022-11-24T01:04:33.219Z,93854.16
2022-11-24T01:07:03.043Z,93856.13
2022-11-24T01:09:32.380Z,93856.53
2022-11-24T01:12:04.539Z,93854.38
2022-11-24T01:14:35.403Z,93852.91
2022-11-24T01:17:05.073Z,93864.88
2022-11-24T01:19:34.411Z,93861.53
2022-11-24T01:22:03.608Z,93859.00
2022-11-24T01:24:33.220Z,93860.38
2022-11-24T01:27:02.810Z,93863.22
2022-11-24T01:29:32.040Z,93868.72
2022-11-24T01:32:02.779Z,93859.81
2022-11-24T01:34:32.396Z,93861.41
2022-11-24T01:37:02.347Z,93861.41
2022-11-24T01:39:31.529Z,93862.81
2022-11-24T01:42:03.641Z,93856.16
2022-11-24T01:44:33.617Z,93859.25
2022-11-24T01:47:07.643Z,93866.09
2022-11-24T01:49:41.370Z,93860.97
2022-11-24T01:52:14.247Z,93862.81
2022-11-24T01:54:47.070Z,93863.06
2022-11-24T01:57:22.350Z,93863.06
2022-11-24T01:59:54.135Z,93865.91
2022-11-24T02:02:31.050Z,93864.09
2022-11-24T02:05:05.354Z,93865.59
2022-11-24T02:07:35.299Z,93869.66
2022-11-24T02:10:08.284Z,93866.56
2022-11-24T02:12:39.520Z,93866.91
2022-11-24T02:15:30.377Z,93865.63
2022-11-24T02:18:02.181Z,93870.16
2022-11-24T02:20:31.402Z,93860.63
2022-11-24T02:23:06.017Z,93866.53
2022-11-24T02:25:44.013Z,93874.34
2022-11-24T02:28:17.344Z,93871.31
2022-11-24T02:30:46.782Z,93865.69
2022-11-24T02:33:16.801Z,93872.72
2022-11-24T02:35:45.949Z,93880.28
2022-11-24T02:38:15.563Z,93885.69
2022-11-24T02:40:48.326Z,93884.91
2022-11-24T02:43:23.695Z,93885.81
2022-11-24T02:45:53.038Z,93888.22
2022-11-24T02:48:22.233Z,93886.38
2022-11-24T02:50:51.328Z,93886.50
2022-11-24T02:53:20.493Z,93886.22
2022-11-24T02:55:52.463Z,93882.91
2022-11-24T02:58:23.409Z,93889.47
2022-11-24T03:00:57.574Z,93889.56
2022-11-24T03:03:27.575Z,93889.31
2022-11-24T03:05:56.764Z,93886.78
2022-11-24T03:08:25.989Z,93878.91
2022-11-24T03:10:58.162Z,93884.47
2022-11-24T03:13:28.868Z,93885.03
2022-11-24T03:15:58.123Z,93892.22
2022-11-24T03:18:27.532Z,93888.22
2022-11-24T03:21:01.347Z,93900.34
2022-11-24T03:23:30.570Z,93893.81
2022-11-24T03:26:09.784Z,93895.25
2022-11-24T03:28:40.585Z,93897.47
2022-11-24T03:31:10.704Z,93900.59
2022-11-24T03:33:40.134Z,93894.53
2022-11-24T03:36:10.486Z,93893.25
2022-11-24T03:38:46.656Z,93895.97
2022-11-24T03:41:15.653Z,93894.72
2022-11-24T03:43:46.208Z,93899.56
2022-11-24T03:46:15.471Z,93897.25
2022-11-24T03:48:44.799Z,93897.31
2022-11-24T03:51:14.076Z,93906.25
2022-11-24T03:53:43.242Z,93910.56
2022-11-24T03:56:12.374Z,93910.25
2022-11-24T03:58:41.525Z,93916.88
2022-11-24T04:01:12.340Z,93916.94
2022-11-24T04:03:41.435Z,93914.81
2022-11-24T04:06:22.141Z,93923.00
2022-11-24T04:08:51.244Z,93920.94
2022-11-24T04:11:33.994Z,93920.13
2022-11-24T04:14:03.250Z,93933.63
2022-11-24T04:16:34.285Z,93930.59
2022-11-24T04:19:03.554Z,93933.22
2022-11-24T04:21:32.616Z,93929.56
2022-11-24T04:24:01.784Z,93935.19
2022-11-24T04:26:31.063Z,93927.06
2022-11-24T04:29:00.149Z,93934.09
2022-11-24T04:31:29.472Z,93927.06
2022-11-24T04:34:00.089Z,93930.03
2022-11-24T04:36:29.416Z,93938.50
2022-11-24T04:39:25.523Z,93944.78
2022-11-24T04:42:16.924Z,93944.84
2022-11-24T04:44:46.169Z,93949.09
2022-11-24T04:47:18.497Z,93951.41
2022-11-24T04:49:50.592Z,93956.50
2022-11-24T04:52:21.126Z,93961.06
2022-11-24T04:54:50.637Z,93963.19
2022-11-24T04:57:21.203Z,93961.91
2022-11-24T04:59:51.204Z,93967.44
2022-11-24T05:02:20.907Z,93969.91
2022-11-24T05:04:51.810Z,93973.34
2022-11-24T05:07:21.447Z,93967.91
2022-11-24T05:10:08.193Z,93972.69
2022-11-24T05:12:37.468Z,93970.34
2022-11-24T05:15:08.443Z,93982.75
2022-11-24T05:17:39.552Z,93987.53
2022-11-24T05:20:10.941Z,93983.44
2022-11-24T05:22:40.119Z,93997.69
2022-11-24T05:25:13.146Z,93994.94
2022-11-24T05:27:42.543Z,93996.97
2022-11-24T05:30:13.334Z,93999.53
2022-11-24T05:32:42.539Z,94007.91
2022-11-24T05:35:14.465Z,94007.91
2022-11-24T05:37:43.531Z,94010.31
2022-11-24T05:40:12.844Z,94013.50
2022-11-24T05:42:47.320Z,94014.53
2022-11-24T05:45:24.720Z,94016.06
2022-11-24T05:47:54.039Z,94018.44
2022-11-24T05:50:24.778Z,94020.78
2022-11-24T05:52:53.985Z,94017.75
2022-11-24T05:55:23.213Z,94028.47
2022-11-24T05:57:59.908Z,94027.03
2022-11-24T06:00:29.870Z,94024.59
2022-11-24T06:02:59.509Z,94023.81
2022-11-24T06:05:31.454Z,94033.25
2022-11-24T06:08:02.017Z,94037.88
2022-11-24T06:10:31.473Z,94039.53
2022-11-24T06:13:15.817Z,94044.34
2022-11-24T06:15:45.240Z,94045.84
2022-11-24T06:18:14.404Z,94045.78
2022-11-24T06:21:02.855Z,94057.75
2022-11-24T06:23:34.988Z,94058.91
2022-11-24T06:26:04.280Z,94066.97
2022-11-24T06:28:33.395Z,94074.28
2022-11-24T06:31:03.637Z,94081.56
2022-11-24T06:33:34.292Z,94093.94
2022-11-24T06:36:06.923Z,94097.59
2022-11-24T06:38:37.715Z,94101.25
2022-11-24T06:41:09.115Z,94099.03
2022-11-24T06:43:38.573Z,94117.00
2022-11-24T06:46:08.681Z,94118.22
2022-11-24T06:48:38.219Z,94119.59
2022-11-24T06:51:13.090Z,94124.78
2022-11-24T06:53:42.628Z,94139.06
2022-11-24T06:56:16.714Z,94137.97
2022-11-24T06:58:48.220Z,94139.41
2022-11-24T07:01:17.892Z,94139.81
2022-11-24T07:03:48.417Z,94152.00
2022-11-24T07:06:40.291Z,94158.78
2022-11-24T07:09:10.409Z,94163.53
2022-11-24T07:11:40.436Z,94160.38
2022-11-24T07:14:12.974Z,94164.34
2022-11-24T07:16:42.425Z,94165.53
2022-11-24T07:19:14.483Z,94167.53
2022-11-24T07:21:45.370Z,94180.19
2022-11-24T07:24:17.774Z,94178.06
2022-11-24T07:26:58.334Z,94182.34
2022-11-24T07:29:27.683Z,94180.25
2022-11-24T07:32:05.290Z,94184.72
2022-11-24T07:34:35.077Z,94182.94
2022-11-24T07:37:05.875Z,94189.69
2022-11-24T07:39:35.103Z,94193.75
2022-11-24T07:42:05.515Z,94192.94
2022-11-24T07:44:34.957Z,94202.69
2022-11-24T07:47:05.195Z,94204.41
2022-11-24T07:49:34.704Z,94209.91
2022-11-24T07:52:05.985Z,94213.19
2022-11-24T07:54:35.299Z,94215.94
2022-11-24T07:57:04.824Z,94212.13
2022-11-24T07:59:34.169Z,94222.88
2022-11-24T08:02:03.601Z,94228.44
2022-11-24T08:04:35.222Z,94230.56
2022-11-24T08:07:06.239Z,94237.88
2022-11-24T08:09:38.728Z,94243.34
2022-11-24T08:12:08.622Z,94233.16
2022-11-24T08:14:38.048Z,94239.78
2022-11-24T08:17:07.417Z,94251.63
2022-11-24T08:19:36.995Z,94247.72
2022-11-24T08:22:07.875Z,94259.06
2022-11-24T08:24:37.294Z,94256.72
2022-11-24T08:27:08.635Z,94260.25
2022-11-24T08:29:38.157Z,94268.81
2022-11-24T08:32:08.233Z,94270.09
2022-11-24T08:34:38.144Z,94276.38
2022-11-24T08:37:09.349Z,94280.28
2022-11-24T08:39:40.215Z,94272.59
2022-11-24T08:42:09.459Z,94281.28
2022-11-24T08:44:38.685Z,94275.59
2022-11-24T08:47:31.412Z,94282.69
2022-11-24T08:50:00.938Z,94290.00
2022-11-24T08:52:33.794Z,94290.69
2022-11-24T08:55:03.371Z,94293.44
2022-11-24T08:57:32.993Z,94295.03
2022-11-24T09:00:02.716Z,94293.88
2022-11-24T09:02:33.766Z,94296.28
2022-11-24T09:05:03.621Z,94290.81
2022-11-24T09:07:36.464Z,94305.66
2022-11-24T09:10:07.222Z,94309.56
2022-11-24T09:12:36.511Z,94313.66
2022-11-24T09:15:09.590Z,94313.09
2022-11-24T09:17:38.464Z,94307.41
2022-11-24T09:22:57.890Z,94307.25
2022-11-24T09:25:28.765Z,94315.94
2022-11-24T09:28:01.300Z,94314.91
2022-11-24T09:30:30.764Z,94328.19
2022-11-24T09:33:00.183Z,94315.84
2022-11-24T09:35:29.552Z,94326.44
2022-11-24T09:38:00.380Z,94320.75
2022-11-24T09:40:30.012Z,94314.22
2022-11-24T09:43:15.938Z,94313.88
2022-11-24T09:46:11.662Z,94320.66
2022-11-24T09:48:43.706Z,94329.25
2022-11-24T09:51:15.278Z,94330.63
2022-11-24T09:54:04.281Z,94330.41
2022-11-24T09:56:36.906Z,94333.69
2022-11-24T09:59:15.000Z,94325.22
2022-11-24T10:01:46.003Z,94337.13
2022-11-24T10:04:19.215Z,94337.50
2022-11-24T10:07:24.474Z,94334.28
2022-11-24T10:10:07.026Z,94332.47
2022-11-24T10:12:52.194Z,94327.50
2022-11-24T10:15:29.328Z,94332.09
2022-11-24T10:18:35.944Z,94325.00
2022-11-24T10:21:15.780Z,94325.84
2022-11-24T10:24:03.224Z,94323.41
2022-11-24T10:26:37.904Z,94329.25
2022-11-24T10:29:20.688Z,94324.69
2022-11-24T10:31:54.018Z,94327.88
2022-11-24T10:34:29.148Z,94341.41
2022-11-24T10:37:04.619Z,94342.78
2022-11-24T10:39:41.211Z,94334.19
2022-11-24T10:42:19.826Z,94331.69
2022-11-24T10:45:02.221Z,94336.94
2022-11-24T10:47:33.312Z,94340.13
2022-11-24T10:50:29.025Z,94334.38
2022-11-24T10:53:07.693Z,94333.72
2022-11-24T10:56:03.947Z,94338.53
2022-11-24T10:58:38.622Z,94339.91
2022-11-24T11:01:31.673Z,94340.69
2022-11-24T11:04:03.290Z,94331.66
2022-11-24T11:06:33.895Z,94322.59
2022-11-24T11:09:21.496Z,94325.09
2022-11-24T11:11:51.585Z,94323.03
2022-11-24T11:14:34.178Z,94326.91
2022-11-24T11:17:04.232Z,94338.03
2022-11-24T11:19:58.559Z,94335.50
2022-11-24T11:22:30.528Z,94348.72
2022-11-24T11:25:22.643Z,94340.56
2022-11-24T11:27:52.208Z,94347.88
2022-11-24T11:36:16.302Z,94355.31
2022-11-24T11:38:47.605Z,94343.94
2022-11-24T11:41:24.426Z,94343.16
2022-11-24T11:44:02.975Z,94347.66
2022-11-24T11:46:35.316Z,94347.38
2022-11-24T11:49:04.880Z,94345.63
2022-11-24T11:55:00.662Z,94351.91
2022-11-24T11:57:39.548Z,94344.72
2022-11-24T12:00:16.007Z,94350.56
2022-11-24T12:03:24.357Z,94354.91
2022-11-24T12:06:05.527Z,94358.81
2022-11-24T12:09:19.696Z,94347.56
2022-11-24T12:12:06.061Z,94360.16
2022-11-24T12:14:46.407Z,94356.41
2022-11-24T12:17:36.108Z,94359.94
2022-11-24T12:20:25.719Z,94346.53
2022-11-24T12:23:07.452Z,94354.44
2022-11-24T12:25:41.696Z,94362.78
2022-11-24T12:28:26.826Z,94351.47
2022-11-24T12:31:07.099Z,94352.03
2022-11-24T12:34:05.025Z,94353.63
2022-11-24T12:36:48.129Z,94355.22
2022-11-24T12:39:23.171Z,94358.41
2022-11-24T12:42:06.266Z,94352.56
2022-11-24T12:45:01.272Z,94351.75
2022-11-24T12:47:45.495Z,94353.00
2022-11-24T12:50:20.503Z,94355.84
2022-11-24T12:52:58.682Z,94356.09
2022-11-24T12:55:34.180Z,94355.97
2022-11-24T12:58:11.418Z,94360.28
2022-11-24T13:00:50.859Z,94361.59
2022-11-24T13:03:31.510Z,94365.53
2022-11-24T13:06:09.630Z,94362.72
2022-11-24T13:08:39.871Z,94363.06
2022-11-24T13:12:02.143Z,94366.28
2022-11-24T13:14:37.185Z,94377.75
2022-11-24T13:17:36.008Z,94375.72
2022-11-24T13:20:22.669Z,94377.78
2022-11-24T13:22:54.802Z,94381.00
2022-11-24T13:25:28.910Z,94379.53
2022-11-24T13:28:01.084Z,94370.38
2022-11-24T13:31:00.284Z,94370.16
2022-11-24T13:33:41.902Z,94372.06
2022-11-24T13:36:36.256Z,94376.19
2022-11-24T13:39:20.365Z,94364.75
2022-11-24T13:42:43.648Z,94371.72
2022-11-24T13:45:02.360Z,94372.66
2022-11-24T13:47:43.227Z,94373.53
2022-11-24T13:50:39.244Z,94384.88
2022-11-24T13:53:14.759Z,94382.59
2022-11-24T13:55:58.319Z,94383.41
2022-11-24T13:58:37.705Z,94387.88
2022-11-24T14:01:29.975Z,94386.63
2022-11-24T14:07:07.323Z,94385.16
2022-11-24T14:09:42.591Z,94394.88
2022-11-24T14:12:16.866Z,94389.72
2022-11-24T14:14:47.612Z,94397.97
2022-11-24T14:17:23.987Z,94401.63
2022-11-24T14:19:54.998Z,94391.53
2022-11-24T14:25:25.512Z,94399.22
2022-11-24T14:27:57.868Z,94401.50
2022-11-24T14:30:28.565Z,94409.97
2022-11-24T14:33:01.212Z,94405.97
2022-11-24T14:35:32.361Z,94401.16
2022-11-24T14:38:03.087Z,94408.38
2022-11-24T14:40:43.496Z,94405.72
2022-11-24T14:43:23.001Z,94404.03
2022-11-24T14:45:54.778Z,94409.97
2022-11-24T14:48:29.005Z,94404.94
2022-11-24T14:51:09.101Z,94402.44
2022-11-24T14:53:42.201Z,94405.06
2022-11-24T14:56:24.132Z,94406.75
2022-11-24T14:58:54.050Z,94408.94
2022-11-24T15:01:30.757Z,94404.59
2022-11-24T15:04:54.340Z,94409.88
2022-11-24T15:07:20.539Z,94416.38
2022-11-24T15:09:55.182Z,94415.44
2022-11-24T15:12:30.881Z,94418.63
2022-11-24T15:15:04.132Z,94425.06
2022-11-24T15:17:35.080Z,94420.38
2022-11-24T15:20:11.541Z,94423.09
2022-11-24T15:22:43.814Z,94425.59
2022-11-24T15:25:31.428Z,94429.69
2022-11-24T15:28:00.884Z,94439.44
2022-11-24T15:30:30.984Z,94435.78
2022-11-24T15:33:01.276Z,94425.84
2022-11-24T15:35:34.388Z,94436.84
2022-11-24T15:38:03.567Z,94441.31
2022-11-24T15:40:33.010Z,94441.66
2022-11-24T15:43:06.444Z,94442.28
2022-11-24T15:45:36.263Z,94441.41
2022-11-24T15:48:07.462Z,94443.94
2022-11-24T15:50:39.420Z,94442.22
2022-11-24T15:53:23.159Z,94443.50
2022-11-24T15:55:53.509Z,94446.34
2022-11-24T15:58:22.861Z,94457.19
2022-11-24T16:00:53.923Z,94452.38
2022-11-24T16:03:46.499Z,94446.69
2022-11-24T16:06:24.258Z,94454.69
2022-11-24T16:08:59.640Z,94449.41
2022-11-24T16:11:29.138Z,94461.66
2022-11-24T16:13:58.477Z,94454.00
2022-11-24T16:16:27.745Z,94458.56
2022-11-24T16:18:57.514Z,94458.59
2022-11-24T16:21:28.289Z,94456.41
2022-11-24T16:23:58.319Z,94464.31
2022-11-24T16:26:27.884Z,94469.66
2022-11-24T16:28:57.355Z,94472.00
2022-11-24T16:31:28.665Z,94472.69
2022-11-24T16:33:57.913Z,94468.91
2022-11-24T16:36:43.428Z,94475.66
2022-11-24T16:39:15.421Z,94480.50
2022-11-24T16:41:44.955Z,94475.06
2022-11-24T16:44:14.173Z,94474.25
2022-11-24T16:46:45.276Z,94478.16
2022-11-24T16:49:16.200Z,94475.63
2022-11-24T16:51:46.803Z,94484.81
2022-11-24T16:54:21.331Z,94479.06
2022-11-24T16:56:50.661Z,94481.44
2022-11-24T16:59:20.206Z,94484.06
2022-11-24T17:01:53.292Z,94490.13
2022-11-24T17:04:22.665Z,94485.03
2022-11-24T17:06:53.646Z,94480.91
2022-11-24T17:09:23.129Z,94481.28
2022-11-24T17:11:52.883Z,94480.91
2022-11-24T17:14:22.253Z,94484.41
2022-11-24T17:16:51.781Z,94484.28
2022-11-24T17:19:21.091Z,94485.22
2022-11-24T17:21:50.729Z,94480.91
2022-11-24T17:24:22.168Z,94479.34
2022-11-24T17:26:52.438Z,94482.00
2022-11-24T17:29:22.131Z,94476.72
2022-11-24T17:31:51.685Z,94478.91
2022-11-24T17:34:21.161Z,94477.00
2022-11-24T17:36:50.711Z,94483.19
2022-11-24T17:39:24.812Z,94486.22
2022-11-24T17:41:54.461Z,94479.03
2022-11-24T17:44:26.140Z,94475.94
2022-11-24T17:46:58.080Z,94489.56
2022-11-24T17:49:29.632Z,94488.75
2022-11-24T17:51:59.525Z,94481.88
2022-11-24T17:54:46.868Z,94483.56
2022-11-24T17:57:16.491Z,94475.47
2022-11-24T17:59:46.342Z,94482.13
2022-11-24T18:02:15.494Z,94476.50
2022-11-24T18:05:11.085Z,94473.75
2022-11-24T18:07:40.365Z,94467.72
2022-11-24T18:10:12.163Z,94469.66
2022-11-24T18:12:41.995Z,94464.50
2022-11-24T18:15:21.379Z,94477.00
2022-11-24T18:17:53.410Z,94481.66
2022-11-24T18:20:38.472Z,94481.34
2022-11-24T18:23:07.831Z,94489.00
2022-11-24T18:25:39.194Z,94480.44
2022-11-24T18:28:08.452Z,94489.16
2022-11-24T18:30:38.099Z,94498.78
2022-11-24T18:33:09.070Z,94498.63
2022-11-24T18:35:40.130Z,94493.84
2022-11-24T18:38:10.536Z,94495.78
2022-11-24T18:40:42.303Z,94495.88
2022-11-24T18:43:11.717Z,94500.56
2022-11-24T18:45:57.737Z,94507.44
2022-11-24T18:48:28.216Z,94506.31
2022-11-24T18:50:58.847Z,94512.16
2022-11-24T18:53:29.606Z,94506.09
2022-11-24T18:56:02.090Z,94524.72
2022-11-24T18:58:33.434Z,94512.47
2022-11-24T19:01:10.333Z,94518.06
2022-11-24T19:03:47.811Z,94515.19
2022-11-24T19:06:20.455Z,94517.06
2022-11-24T19:08:50.782Z,94522.53
2022-11-24T19:11:24.081Z,94518.56
2022-11-24T19:13:53.718Z,94523.88
2022-11-24T19:16:23.509Z,94522.16
2022-11-24T19:19:03.271Z,94520.53
2022-11-24T19:21:34.714Z,94529.50
2022-11-24T19:24:05.808Z,94528.53
2022-11-24T19:26:38.572Z,94525.72
2022-11-24T19:29:09.178Z,94530.53
2022-11-24T19:31:40.013Z,94532.16
2022-11-24T19:34:09.972Z,94529.94
2022-11-24T19:37:00.103Z,94534.06
2022-11-24T19:39:46.931Z,94534.88
2022-11-24T19:42:18.739Z,94532.91
2022-11-24T19:44:52.950Z,94529.25
2022-11-24T19:47:25.645Z,94531.97
2022-11-24T19:49:56.156Z,94532.31
2022-11-24T19:52:25.865Z,94532.31
2022-11-24T19:54:55.976Z,94532.72
2022-11-24T19:57:27.055Z,94536.00
2022-11-24T19:59:56.756Z,94540.88
2022-11-24T20:02:26.333Z,94549.44
2022-11-24T20:04:55.904Z,94540.16
2022-11-24T20:07:25.255Z,94540.09
2022-11-24T20:09:54.780Z,94536.50
2022-11-24T20:12:24.025Z,94539.81
2022-11-24T20:14:54.803Z,94542.28
2022-11-24T20:17:24.155Z,94543.66
2022-11-24T20:19:56.558Z,94539.50
2022-11-24T20:22:25.856Z,94544.25
2022-11-24T20:24:55.413Z,94540.75
2022-11-24T20:27:25.074Z,94541.91
2022-11-24T20:29:56.201Z,94548.56
2022-11-24T20:32:25.524Z,94553.16
2022-11-24T20:34:54.841Z,94546.22
2022-11-24T20:40:32.289Z,94561.94
2022-11-24T20:43:01.657Z,94552.66
2022-11-24T20:45:32.417Z,94560.72
2022-11-24T20:48:07.901Z,94562.00
2022-11-24T20:50:38.431Z,94560.97
2022-11-24T20:53:07.646Z,94563.91
2022-11-24T20:55:37.261Z,94568.50
2022-11-24T20:58:07.549Z,94566.06
2022-11-24T21:00:38.562Z,94571.91
2022-11-24T21:03:07.951Z,94573.91
2022-11-24T21:05:37.256Z,94561.38
2022-11-24T21:08:06.811Z,94565.50
2022-11-24T21:10:36.116Z,94561.13
2022-11-24T21:13:05.485Z,94561.19
2022-11-24T21:15:34.964Z,94556.34
2022-11-24T21:18:06.003Z,94559.13
2022-11-24T21:20:35.793Z,94558.63
2022-11-24T21:23:05.449Z,94565.50
2022-11-24T21:25:45.414Z,94556.22
2022-11-24T21:28:14.911Z,94564.91
2022-11-24T21:30:51.657Z,94567.88
2022-11-24T21:33:25.089Z,94571.09
2022-11-24T21:35:54.665Z,94570.69
2022-11-24T21:38:25.365Z,94578.44
2022-11-24T21:40:54.564Z,94579.16
2022-11-24T21:43:29.162Z,94583.56
2022-11-24T21:46:03.098Z,94590.66
2022-11-24T21:48:34.774Z,94591.66
2022-11-24T21:51:23.455Z,94593.88
2022-11-24T21:53:52.955Z,94595.41
2022-11-24T21:56:24.235Z,94600.38
2022-11-24T21:58:55.367Z,94597.09
2022-11-24T22:01:26.596Z,94605.69
2022-11-24T22:04:09.315Z,94610.59
2022-11-24T22:06:39.194Z,94608.22
2022-11-24T22:09:08.512Z,94623.09
2022-11-24T22:11:42.665Z,94619.06
2022-11-24T22:14:12.154Z,94604.91
2022-11-24T22:16:41.571Z,94618.13
2022-11-24T22:19:12.429Z,94619.75
2022-11-24T22:21:41.716Z,94612.41
2022-11-24T22:24:11.278Z,94620.31
2022-11-24T22:26:43.250Z,94618.72
2022-11-24T22:29:14.893Z,94623.47
2022-11-24T22:31:44.474Z,94617.84
2022-11-24T22:34:15.209Z,94617.91
2022-11-24T22:36:44.427Z,94624.78
2022-11-24T22:39:14.624Z,94617.69
2022-11-24T22:41:43.864Z,94617.25
2022-11-24T22:44:13.514Z,94615.72
2022-11-24T22:46:44.959Z,94614.69
2022-11-24T22:49:16.264Z,94621.72
2022-11-24T22:51:45.400Z,94616.75
2022-11-24T22:54:15.212Z,94623.63
2022-11-24T22:56:44.393Z,94626.75
2022-11-24T22:59:13.740Z,94627.59
2022-11-24T23:01:42.951Z,94626.84
2022-11-24T23:04:12.231Z,94625.22
2022-11-24T23:06:43.322Z,94619.81
2022-11-24T23:09:13.161Z,94611.69
2022-11-24T23:11:42.879Z,94621.63
2022-11-24T23:14:15.796Z,94618.78
2022-11-24T23:16:45.253Z,94619.09
2022-11-24T23:19:14.432Z,94621.66
2022-11-24T23:21:45.022Z,94624.78
2022-11-24T23:24:14.249Z,94625.25
2022-11-24T23:26:43.340Z,94624.38
2022-11-24T23:29:13.069Z,94619.22
2022-11-24T23:31:42.406Z,94632.47
2022-11-24T23:34:11.907Z,94625.59
2022-11-24T23:36:41.177Z,94621.22
2022-11-24T23:39:35.063Z,94626.09
2022-11-24T23:42:04.292Z,94633.69
2022-11-24T23:44:34.147Z,94637.00
2022-11-24T23:47:03.548Z,94634.19
2022-11-24T23:49:32.939Z,94636.69
2022-11-24T23:52:02.059Z,94646.16
2022-11-24T23:57:19.409Z,94647.19
2022-11-24T23:59:48.570Z,94652.06
